sensor_id;sensor_type;location;lat;lon;timestamp;temperature;humidity
67157;SHT31;54086;50.126;8.710;2023-03-13T00:02:02;10.19;81.25
67157;SHT31;54086;50.126;8.710;2023-03-13T00:04:30;10.12;81.47
67157;SHT31;54086;50.126;8.710;2023-03-13T00:06:55;10.15;81.47
67157;SHT31;54086;50.126;8.710;2023-03-13T00:09:21;10.19;81.28
67157;SHT31;54086;50.126;8.710;2023-03-13T00:11:48;10.17;81.41
67157;SHT31;54086;50.126;8.710;2023-03-13T00:14:13;10.18;81.35
67157;SHT31;54086;50.126;8.710;2023-03-13T00:16:39;10.14;81.48
67157;SHT31;54086;50.126;8.710;2023-03-13T00:19:06;10.17;81.34
67157;SHT31;54086;50.126;8.710;2023-03-13T00:21:34;10.18;81.34
67157;SHT31;54086;50.126;8.710;2023-03-13T00:24:01;10.21;81.36
67157;SHT31;54086;50.126;8.710;2023-03-13T00:26:30;10.21;81.28
67157;SHT31;54086;50.126;8.710;2023-03-13T00:28:56;10.17;81.49
67157;SHT31;54086;50.126;8.710;2023-03-13T00:31:26;10.18;81.38
67157;SHT31;54086;50.126;8.710;2023-03-13T00:33:56;10.15;81.46
67157;SHT31;54086;50.126;8.710;2023-03-13T00:36:31;10.18;81.32
67157;SHT31;54086;50.126;8.710;2023-03-13T00:38:57;10.22;81.19
67157;SHT31;54086;50.126;8.710;2023-03-13T00:41:32;10.25;81.12
67157;SHT31;54086;50.126;8.710;2023-03-13T00:43:58;10.25;81.05
67157;SHT31;54086;50.126;8.710;2023-03-13T00:46:26;10.24;81.14
67157;SHT31;54086;50.126;8.710;2023-03-13T00:48:53;10.27;81.03
67157;SHT31;54086;50.126;8.710;2023-03-13T00:51:19;10.18;81.32
67157;SHT31;54086;50.126;8.710;2023-03-13T00:53:45;10.18;81.31
67157;SHT31;54086;50.126;8.710;2023-03-13T00:56:13;10.21;81.12
67157;SHT31;54086;50.126;8.710;2023-03-13T00:58:40;10.24;81.15
67157;SHT31;54086;50.126;8.710;2023-03-13T01:01:20;10.25;80.98
67157;SHT31;54086;50.126;8.710;2023-03-13T01:03:51;10.24;81.09
67157;SHT31;54086;50.126;8.710;2023-03-13T01:06:20;10.21;81.29
67157;SHT31;54086;50.126;8.710;2023-03-13T01:08:46;10.17;81.38
67157;SHT31;54086;50.126;8.710;2023-03-13T01:11:14;10.24;81.16
67157;SHT31;54086;50.126;8.710;2023-03-13T01:13:40;10.22;81.16
67157;SHT31;54086;50.126;8.710;2023-03-13T01:16:18;10.21;81.28
67157;SHT31;54086;50.126;8.710;2023-03-13T01:19:05;10.18;81.44
67157;SHT31;54086;50.126;8.710;2023-03-13T01:21:51;10.12;81.59
67157;SHT31;54086;50.126;8.710;2023-03-13T01:24:16;10.17;81.63
67157;SHT31;54086;50.126;8.710;2023-03-13T01:26:43;10.17;81.60
67157;SHT31;54086;50.126;8.710;2023-03-13T01:29:08;10.21;81.57
67157;SHT31;54086;50.126;8.710;2023-03-13T01:31:35;10.24;81.38
67157;SHT31;54086;50.126;8.710;2023-03-13T01:34:04;10.24;81.39
67157;SHT31;54086;50.126;8.710;2023-03-13T01:36:31;10.24;81.39
67157;SHT31;54086;50.126;8.710;2023-03-13T01:38:59;10.29;81.44
67157;SHT31;54086;50.126;8.710;2023-03-13T01:41:28;10.27;81.34
67157;SHT31;54086;50.126;8.710;2023-03-13T01:43:55;10.24;81.43
67157;SHT31;54086;50.126;8.710;2023-03-13T01:46:22;10.21;81.65
67157;SHT31;54086;50.126;8.710;2023-03-13T01:51:26;10.35;81.20
67157;SHT31;54086;50.126;8.710;2023-03-13T01:59:23;10.46;80.94
67157;SHT31;54086;50.126;8.710;2023-03-13T02:01:56;10.48;80.95
67157;SHT31;54086;50.126;8.710;2023-03-13T02:04:25;10.46;81.11
67157;SHT31;54086;50.126;8.710;2023-03-13T02:06:57;10.52;81.58
67157;SHT31;54086;50.126;8.710;2023-03-13T02:09:33;10.53;82.07
67157;SHT31;54086;50.126;8.710;2023-03-13T02:12:03;10.49;82.55
67157;SHT31;54086;50.126;8.710;2023-03-13T02:14:35;10.53;82.44
67157;SHT31;54086;50.126;8.710;2023-03-13T02:17:02;10.53;82.60
67157;SHT31;54086;50.126;8.710;2023-03-13T02:19:39;10.53;82.80
67157;SHT31;54086;50.126;8.710;2023-03-13T02:27:34;10.48;84.12
67157;SHT31;54086;50.126;8.710;2023-03-13T02:30:02;10.45;84.56
67157;SHT31;54086;50.126;8.710;2023-03-13T02:32:32;10.39;84.90
67157;SHT31;54086;50.126;8.710;2023-03-13T02:35:03;10.35;85.27
67157;SHT31;54086;50.126;8.710;2023-03-13T02:37:32;10.34;85.45
67157;SHT31;54086;50.126;8.710;2023-03-13T02:40:02;10.38;85.38
67157;SHT31;54086;50.126;8.710;2023-03-13T02:42:31;10.41;85.35
67157;SHT31;54086;50.126;8.710;2023-03-13T02:44:57;10.34;85.54
67157;SHT31;54086;50.126;8.710;2023-03-13T02:47:23;10.35;85.66
67157;SHT31;54086;50.126;8.710;2023-03-13T02:49:50;10.42;85.07
67157;SHT31;54086;50.126;8.710;2023-03-13T02:52:34;10.37;85.29
67157;SHT31;54086;50.126;8.710;2023-03-13T02:55:09;10.41;85.16
67157;SHT31;54086;50.126;8.710;2023-03-13T02:57:37;10.38;85.34
67157;SHT31;54086;50.126;8.710;2023-03-13T03:00:03;10.34;85.72
67157;SHT31;54086;50.126;8.710;2023-03-13T03:02:31;10.31;85.77
67157;SHT31;54086;50.126;8.710;2023-03-13T03:04:56;10.35;85.71
67157;SHT31;54086;50.126;8.710;2023-03-13T03:07:22;10.29;86.08
67157;SHT31;54086;50.126;8.710;2023-03-13T03:09:50;10.27;86.50
67157;SHT31;54086;50.126;8.710;2023-03-13T03:12:16;10.27;86.79
67157;SHT31;54086;50.126;8.710;2023-03-13T03:14:41;10.24;86.94
67157;SHT31;54086;50.126;8.710;2023-03-13T03:17:06;10.18;87.28
67157;SHT31;54086;50.126;8.710;2023-03-13T03:19:32;10.19;87.38
67157;SHT31;54086;50.126;8.710;2023-03-13T03:21:58;10.25;86.72
67157;SHT31;54086;50.126;8.710;2023-03-13T03:24:23;10.29;86.79
67157;SHT31;54086;50.126;8.710;2023-03-13T03:26:48;10.24;87.07
67157;SHT31;54086;50.126;8.710;2023-03-13T03:29:14;10.22;87.08
67157;SHT31;54086;50.126;8.710;2023-03-13T03:31:39;10.21;87.42
67157;SHT31;54086;50.126;8.710;2023-03-13T03:34:05;10.18;87.69
67157;SHT31;54086;50.126;8.710;2023-03-13T03:36:33;10.21;87.55
67157;SHT31;54086;50.126;8.710;2023-03-13T03:38:59;10.17;88.02
67157;SHT31;54086;50.126;8.710;2023-03-13T03:41:24;10.17;88.24
67157;SHT31;54086;50.126;8.710;2023-03-13T03:43:49;10.10;88.00
67157;SHT31;54086;50.126;8.710;2023-03-13T03:46:15;10.00;88.81
67157;SHT31;54086;50.126;8.710;2023-03-13T03:48:43;9.95;89.30
67157;SHT31;54086;50.126;8.710;2023-03-13T03:51:09;9.87;89.53
67157;SHT31;54086;50.126;8.710;2023-03-13T03:53:35;9.83;89.86
67157;SHT31;54086;50.126;8.710;2023-03-13T03:56:00;9.76;90.12
67157;SHT31;54086;50.126;8.710;2023-03-13T03:58:26;9.73;90.22
67157;SHT31;54086;50.126;8.710;2023-03-13T04:00:51;9.73;90.21
67157;SHT31;54086;50.126;8.710;2023-03-13T04:03:17;9.71;90.31
67157;SHT31;54086;50.126;8.710;2023-03-13T04:05:48;9.70;90.36
67157;SHT31;54086;50.126;8.710;2023-03-13T04:08:14;9.69;90.41
67157;SHT31;54086;50.126;8.710;2023-03-13T04:10:40;9.66;90.51
67157;SHT31;54086;50.126;8.710;2023-03-13T04:13:06;9.69;90.40
67157;SHT31;54086;50.126;8.710;2023-03-13T04:15:31;9.67;90.29
67157;SHT31;54086;50.126;8.710;2023-03-13T04:17:57;9.64;90.54
67157;SHT31;54086;50.126;8.710;2023-03-13T04:20:25;9.63;90.36
67157;SHT31;54086;50.126;8.710;2023-03-13T04:22:50;9.67;90.47
67157;SHT31;54086;50.126;8.710;2023-03-13T04:25:20;9.60;90.75
67157;SHT31;54086;50.126;8.710;2023-03-13T04:27:45;9.57;91.03
67157;SHT31;54086;50.126;8.710;2023-03-13T04:30:11;9.59;90.87
67157;SHT31;54086;50.126;8.710;2023-03-13T04:32:39;9.56;90.93
67157;SHT31;54086;50.126;8.710;2023-03-13T04:35:04;9.59;90.66
67157;SHT31;54086;50.126;8.710;2023-03-13T04:37:30;9.60;90.75
67157;SHT31;54086;50.126;8.710;2023-03-13T04:39:58;9.61;90.72
67157;SHT31;54086;50.126;8.710;2023-03-13T04:42:24;9.61;90.83
67157;SHT31;54086;50.126;8.710;2023-03-13T04:44:49;9.59;91.01
67157;SHT31;54086;50.126;8.710;2023-03-13T04:47:15;9.59;91.15
67157;SHT31;54086;50.126;8.710;2023-03-13T04:49:40;9.61;91.17
67157;SHT31;54086;50.126;8.710;2023-03-13T04:52:06;9.61;91.32
67157;SHT31;54086;50.126;8.710;2023-03-13T04:54:31;9.66;91.43
67157;SHT31;54086;50.126;8.710;2023-03-13T04:56:58;9.70;91.57
67157;SHT31;54086;50.126;8.710;2023-03-13T04:59:23;9.73;91.68
67157;SHT31;54086;50.126;8.710;2023-03-13T05:01:51;9.76;91.94
67157;SHT31;54086;50.126;8.710;2023-03-13T05:04:17;9.71;92.15
67157;SHT31;54086;50.126;8.710;2023-03-13T05:06:42;9.71;92.25
67157;SHT31;54086;50.126;8.710;2023-03-13T05:09:08;9.73;92.52
67157;SHT31;54086;50.126;8.710;2023-03-13T05:11:34;9.74;92.59
67157;SHT31;54086;50.126;8.710;2023-03-13T05:14:00;9.77;92.72
67157;SHT31;54086;50.126;8.710;2023-03-13T05:16:26;9.73;92.89
67157;SHT31;54086;50.126;8.710;2023-03-13T05:18:51;9.80;92.97
67157;SHT31;54086;50.126;8.710;2023-03-13T05:21:17;9.83;92.99
67157;SHT31;54086;50.126;8.710;2023-03-13T05:23:42;9.83;93.16
67157;SHT31;54086;50.126;8.710;2023-03-13T05:26:07;9.88;93.18
67157;SHT31;54086;50.126;8.710;2023-03-13T05:28:33;9.90;93.22
67157;SHT31;54086;50.126;8.710;2023-03-13T05:30:58;9.93;93.30
67157;SHT31;54086;50.126;8.710;2023-03-13T05:33:23;9.98;93.44
67157;SHT31;54086;50.126;8.710;2023-03-13T05:35:49;10.01;93.43
67157;SHT31;54086;50.126;8.710;2023-03-13T05:38:14;10.02;93.57
67157;SHT31;54086;50.126;8.710;2023-03-13T05:40:40;10.07;93.51
67157;SHT31;54086;50.126;8.710;2023-03-13T05:43:05;10.10;93.62
67157;SHT31;54086;50.126;8.710;2023-03-13T05:48:06;10.19;93.45
67157;SHT31;54086;50.126;8.710;2023-03-13T05:50:31;10.19;93.32
67157;SHT31;54086;50.126;8.710;2023-03-13T05:52:57;10.28;93.28
67157;SHT31;54086;50.126;8.710;2023-03-13T05:55:23;10.28;93.24
67157;SHT31;54086;50.126;8.710;2023-03-13T05:57:48;10.32;93.12
67157;SHT31;54086;50.126;8.710;2023-03-13T06:00:15;10.32;93.10
67157;SHT31;54086;50.126;8.710;2023-03-13T06:02:41;10.38;93.06
67157;SHT31;54086;50.126;8.710;2023-03-13T06:05:08;10.45;93.04
67157;SHT31;54086;50.126;8.710;2023-03-13T06:07:34;10.49;93.10
67157;SHT31;54086;50.126;8.710;2023-03-13T06:10:00;10.48;93.33
67157;SHT31;54086;50.126;8.710;2023-03-13T06:12:26;10.50;93.44
67157;SHT31;54086;50.126;8.710;2023-03-13T06:14:51;10.53;93.35
67157;SHT31;54086;50.126;8.710;2023-03-13T06:17:17;10.53;93.27
67157;SHT31;54086;50.126;8.710;2023-03-13T06:19:43;10.58;93.17
67157;SHT31;54086;50.126;8.710;2023-03-13T06:22:08;10.59;93.12
67157;SHT31;54086;50.126;8.710;2023-03-13T06:24:34;10.63;92.97
67157;SHT31;54086;50.126;8.710;2023-03-13T06:26:59;10.62;92.97
67157;SHT31;54086;50.126;8.710;2023-03-13T06:29:25;10.62;93.06
67157;SHT31;54086;50.126;8.710;2023-03-13T06:31:50;10.63;93.02
67157;SHT31;54086;50.126;8.710;2023-03-13T06:34:16;10.68;92.95
67157;SHT31;54086;50.126;8.710;2023-03-13T06:36:43;10.65;92.99
67157;SHT31;54086;50.126;8.710;2023-03-13T06:39:10;10.69;93.01
67157;SHT31;54086;50.126;8.710;2023-03-13T06:41:35;10.72;92.93
67157;SHT31;54086;50.126;8.710;2023-03-13T06:44:02;10.70;92.88
67157;SHT31;54086;50.126;8.710;2023-03-13T06:46:27;10.76;92.70
67157;SHT31;54086;50.126;8.710;2023-03-13T06:48:53;10.81;92.59
67157;SHT31;54086;50.126;8.710;2023-03-13T06:51:20;10.80;92.67
67157;SHT31;54086;50.126;8.710;2023-03-13T06:53:46;10.86;92.44
67157;SHT31;54086;50.126;8.710;2023-03-13T06:56:12;10.89;92.55
67157;SHT31;54086;50.126;8.710;2023-03-13T06:58:37;10.92;92.51
67157;SHT31;54086;50.126;8.710;2023-03-13T07:01:11;10.93;92.41
67157;SHT31;54086;50.126;8.710;2023-03-13T07:03:37;10.99;92.21
67157;SHT31;54086;50.126;8.710;2023-03-13T07:06:04;11.03;92.20
67157;SHT31;54086;50.126;8.710;2023-03-13T07:08:31;11.01;92.11
67157;SHT31;54086;50.126;8.710;2023-03-13T07:10:59;11.07;92.02
67157;SHT31;54086;50.126;8.710;2023-03-13T07:13:26;11.20;91.55
67157;SHT31;54086;50.126;8.710;2023-03-13T07:15:52;11.20;91.63
67157;SHT31;54086;50.126;8.710;2023-03-13T07:18:18;11.20;91.71
67157;SHT31;54086;50.126;8.710;2023-03-13T07:20:44;11.24;91.61
67157;SHT31;54086;50.126;8.710;2023-03-13T07:23:09;11.28;91.51
67157;SHT31;54086;50.126;8.710;2023-03-13T07:25:35;11.34;91.29
67157;SHT31;54086;50.126;8.710;2023-03-13T07:28:00;11.37;91.24
67157;SHT31;54086;50.126;8.710;2023-03-13T07:30:26;11.42;91.09
67157;SHT31;54086;50.126;8.710;2023-03-13T07:32:52;11.54;90.78
67157;SHT31;54086;50.126;8.710;2023-03-13T07:35:18;11.55;90.69
67157;SHT31;54086;50.126;8.710;2023-03-13T07:37:43;11.62;90.50
67157;SHT31;54086;50.126;8.710;2023-03-13T07:40:09;11.68;90.44
67157;SHT31;54086;50.126;8.710;2023-03-13T07:42:40;11.69;90.48
67157;SHT31;54086;50.126;8.710;2023-03-13T07:45:06;11.77;90.26
67157;SHT31;54086;50.126;8.710;2023-03-13T07:47:35;11.82;90.16
67157;SHT31;54086;50.126;8.710;2023-03-13T07:50:01;11.86;90.08
67157;SHT31;54086;50.126;8.710;2023-03-13T07:52:26;11.92;89.89
67157;SHT31;54086;50.126;8.710;2023-03-13T07:54:53;11.98;89.66
67157;SHT31;54086;50.126;8.710;2023-03-13T07:57:19;12.05;89.58
67157;SHT31;54086;50.126;8.710;2023-03-13T07:59:44;12.15;89.23
67157;SHT31;54086;50.126;8.710;2023-03-13T08:02:11;12.12;89.26
67157;SHT31;54086;50.126;8.710;2023-03-13T08:04:39;12.10;89.41
67157;SHT31;54086;50.126;8.710;2023-03-13T08:07:09;12.16;89.24
67157;SHT31;54086;50.126;8.710;2023-03-13T08:09:35;12.20;89.19
67157;SHT31;54086;50.126;8.710;2023-03-13T08:12:00;12.23;89.21
67157;SHT31;54086;50.126;8.710;2023-03-13T08:14:26;12.22;89.18
67157;SHT31;54086;50.126;8.710;2023-03-13T08:16:52;12.22;89.25
67157;SHT31;54086;50.126;8.710;2023-03-13T08:19:17;12.27;89.17
67157;SHT31;54086;50.126;8.710;2023-03-13T08:21:43;12.29;89.19
67157;SHT31;54086;50.126;8.710;2023-03-13T08:24:09;12.27;89.18
67157;SHT31;54086;50.126;8.710;2023-03-13T08:26:38;12.32;89.18
67157;SHT31;54086;50.126;8.710;2023-03-13T08:29:07;12.36;89.15
67157;SHT31;54086;50.126;8.710;2023-03-13T08:31:35;12.50;88.85
67157;SHT31;54086;50.126;8.710;2023-03-13T08:34:01;12.58;88.69
67157;SHT31;54086;50.126;8.710;2023-03-13T08:36:33;12.73;88.34
67157;SHT31;54086;50.126;8.710;2023-03-13T08:39:01;12.85;88.06
67157;SHT31;54086;50.126;8.710;2023-03-13T08:41:30;12.89;88.11
67157;SHT31;54086;50.126;8.710;2023-03-13T08:43:57;12.99;87.80
67157;SHT31;54086;50.126;8.710;2023-03-13T08:46:22;13.09;87.64
67157;SHT31;54086;50.126;8.710;2023-03-13T08:48:50;13.15;87.53
67157;SHT31;54086;50.126;8.710;2023-03-13T08:51:16;13.25;87.53
67157;SHT31;54086;50.126;8.710;2023-03-13T08:53:42;13.29;87.23
67157;SHT31;54086;50.126;8.710;2023-03-13T08:56:09;13.35;87.23
67157;SHT31;54086;50.126;8.710;2023-03-13T08:58:36;13.39;87.21
67157;SHT31;54086;50.126;8.710;2023-03-13T09:01:12;13.45;87.21
67157;SHT31;54086;50.126;8.710;2023-03-13T09:03:38;13.52;87.03
67157;SHT31;54086;50.126;8.710;2023-03-13T09:06:05;13.47;87.00
67157;SHT31;54086;50.126;8.710;2023-03-13T09:08:32;13.47;87.04
67157;SHT31;54086;50.126;8.710;2023-03-13T09:11:00;13.49;87.05
67157;SHT31;54086;50.126;8.710;2023-03-13T09:13:29;13.49;87.19
67157;SHT31;54086;50.126;8.710;2023-03-13T09:16:00;13.46;87.25
67157;SHT31;54086;50.126;8.710;2023-03-13T09:18:27;13.46;87.30
67157;SHT31;54086;50.126;8.710;2023-03-13T09:20:53;13.45;87.31
67157;SHT31;54086;50.126;8.710;2023-03-13T09:23:19;13.55;87.29
67157;SHT31;54086;50.126;8.710;2023-03-13T09:25:46;13.55;87.09
67157;SHT31;54086;50.126;8.710;2023-03-13T09:28:13;13.62;87.03
67157;SHT31;54086;50.126;8.710;2023-03-13T09:30:38;13.60;87.01
67157;SHT31;54086;50.126;8.710;2023-03-13T09:33:06;13.60;87.08
67157;SHT31;54086;50.126;8.710;2023-03-13T09:35:31;13.67;86.99
67157;SHT31;54086;50.126;8.710;2023-03-13T09:37:57;13.70;86.96
67157;SHT31;54086;50.126;8.710;2023-03-13T09:40:23;13.73;86.75
67157;SHT31;54086;50.126;8.710;2023-03-13T09:42:58;13.73;86.90
67157;SHT31;54086;50.126;8.710;2023-03-13T09:45:53;13.71;86.81
67157;SHT31;54086;50.126;8.710;2023-03-13T09:48:43;13.70;86.96
67157;SHT31;54086;50.126;8.710;2023-03-13T09:51:23;13.73;86.87
67157;SHT31;54086;50.126;8.710;2023-03-13T09:54:03;13.73;86.95
67157;SHT31;54086;50.126;8.710;2023-03-13T09:56:36;13.77;86.75
67157;SHT31;54086;50.126;8.710;2023-03-13T09:59:14;13.80;86.72
67157;SHT31;54086;50.126;8.710;2023-03-13T10:01:41;13.84;86.51
67157;SHT31;54086;50.126;8.710;2023-03-13T10:04:37;13.94;86.51
67157;SHT31;54086;50.126;8.710;2023-03-13T10:07:10;13.90;86.30
67157;SHT31;54086;50.126;8.710;2023-03-13T10:09:36;13.84;86.29
67157;SHT31;54086;50.126;8.710;2023-03-13T10:12:22;13.86;86.40
67157;SHT31;54086;50.126;8.710;2023-03-13T10:17:37;13.94;85.98
67157;SHT31;54086;50.126;8.710;2023-03-13T10:20:35;14.11;85.69
67157;SHT31;54086;50.126;8.710;2023-03-13T10:23:19;14.25;85.45
67157;SHT31;54086;50.126;8.710;2023-03-13T10:25:46;14.27;85.15
67157;SHT31;54086;50.126;8.710;2023-03-13T10:28:13;14.46;84.73
67157;SHT31;54086;50.126;8.710;2023-03-13T10:30:51;14.48;84.56
67157;SHT31;54086;50.126;8.710;2023-03-13T10:33:27;14.39;84.80
67157;SHT31;54086;50.126;8.710;2023-03-13T10:38:32;14.36;85.11
67157;SHT31;54086;50.126;8.710;2023-03-13T10:41:01;14.32;85.22
67157;SHT31;54086;50.126;8.710;2023-03-13T10:43:31;14.28;85.33
67157;SHT31;54086;50.126;8.710;2023-03-13T10:45:57;14.31;85.20
67157;SHT31;54086;50.126;8.710;2023-03-13T10:48:25;14.31;85.36
67157;SHT31;54086;50.126;8.710;2023-03-13T10:50:53;14.34;85.20
67157;SHT31;54086;50.126;8.710;2023-03-13T10:55:54;14.52;85.05
67157;SHT31;54086;50.126;8.710;2023-03-13T10:58:43;14.56;84.54
67157;SHT31;54086;50.126;8.710;2023-03-13T11:01:39;14.61;84.52
67157;SHT31;54086;50.126;8.710;2023-03-13T11:04:38;14.62;84.59
67157;SHT31;54086;50.126;8.710;2023-03-13T11:07:13;14.65;84.42
67157;SHT31;54086;50.126;8.710;2023-03-13T11:09:42;14.69;84.51
67157;SHT31;54086;50.126;8.710;2023-03-13T11:12:19;14.75;84.14
67157;SHT31;54086;50.126;8.710;2023-03-13T11:14:45;14.86;84.07
67157;SHT31;54086;50.126;8.710;2023-03-13T11:17:34;14.83;83.89
67157;SHT31;54086;50.126;8.710;2023-03-13T11:20:35;14.87;84.04
67157;SHT31;54086;50.126;8.710;2023-03-13T11:23:28;14.83;83.74
67157;SHT31;54086;50.126;8.710;2023-03-13T11:31:39;14.86;83.37
67157;SHT31;54086;50.126;8.710;2023-03-13T11:34:26;14.87;83.22
67157;SHT31;54086;50.126;8.710;2023-03-13T11:37:12;14.86;82.77
67157;SHT31;54086;50.126;8.710;2023-03-13T11:43:06;14.86;82.62
67157;SHT31;54086;50.126;8.710;2023-03-13T11:51:35;14.97;81.70
67157;SHT31;54086;50.126;8.710;2023-03-13T11:54:23;14.99;81.60
67157;SHT31;54086;50.126;8.710;2023-03-13T11:56:58;14.96;81.62
67157;SHT31;54086;50.126;8.710;2023-03-13T12:04:53;15.16;81.03
67157;SHT31;54086;50.126;8.710;2023-03-13T12:07:34;15.26;80.68
67157;SHT31;54086;50.126;8.710;2023-03-13T12:10:03;15.33;80.11
67157;SHT31;54086;50.126;8.710;2023-03-13T12:12:40;15.38;80.26
67157;SHT31;54086;50.126;8.710;2023-03-13T12:15:20;15.40;80.27
67157;SHT31;54086;50.126;8.710;2023-03-13T12:17:57;15.59;79.75
67157;SHT31;54086;50.126;8.710;2023-03-13T12:20:40;15.77;79.39
67157;SHT31;54086;50.126;8.710;2023-03-13T12:23:18;15.81;79.02
67157;SHT31;54086;50.126;8.710;2023-03-13T12:25:54;15.77;79.41
67157;SHT31;54086;50.126;8.710;2023-03-13T12:31:35;15.61;79.74
67157;SHT31;54086;50.126;8.710;2023-03-13T12:39:59;15.62;80.23
67157;SHT31;54086;50.126;8.710;2023-03-13T12:45:00;15.54;81.51
67157;SHT31;54086;50.126;8.710;2023-03-13T12:50:45;15.40;82.45
67157;SHT31;54086;50.126;8.710;2023-03-13T12:53:04;15.37;83.01
67157;SHT31;54086;50.126;8.710;2023-03-13T12:58:29;15.23;84.15
67157;SHT31;54086;50.126;8.710;2023-03-13T13:01:03;15.17;84.56
67157;SHT31;54086;50.126;8.710;2023-03-13T13:03:33;15.14;84.66
67157;SHT31;54086;50.126;8.710;2023-03-13T13:06:14;15.16;84.85
67157;SHT31;54086;50.126;8.710;2023-03-13T13:09:06;15.08;85.10
67157;SHT31;54086;50.126;8.710;2023-03-13T13:13:58;15.06;85.67
67157;SHT31;54086;50.126;8.710;2023-03-13T13:16:24;14.99;85.93
67157;SHT31;54086;50.126;8.710;2023-03-13T13:18:50;14.99;86.03
67157;SHT31;54086;50.126;8.710;2023-03-13T13:23:45;15.50;85.01
67157;SHT31;54086;50.126;8.710;2023-03-13T13:29:50;15.77;84.73
67157;SHT31;54086;50.126;8.710;2023-03-13T13:36:53;15.78;84.78
67157;SHT31;54086;50.126;8.710;2023-03-13T13:39:38;16.06;84.11
67157;SHT31;54086;50.126;8.710;2023-03-13T13:45:02;17.66;80.12
67157;SHT31;54086;50.126;8.710;2023-03-13T13:47:30;18.79;76.46
67157;SHT31;54086;50.126;8.710;2023-03-13T13:49:57;19.28;74.31
67157;SHT31;54086;50.126;8.710;2023-03-13T13:52:39;18.92;74.34
67157;SHT31;54086;50.126;8.710;2023-03-13T13:57:47;19.14;73.76
67157;SHT31;54086;50.126;8.710;2023-03-13T14:00:20;18.83;74.73
67157;SHT31;54086;50.126;8.710;2023-03-13T14:02:50;17.91;76.97
67157;SHT31;54086;50.126;8.710;2023-03-13T14:05:31;17.57;77.87
67157;SHT31;54086;50.126;8.710;2023-03-13T14:08:07;17.36;78.87
67157;SHT31;54086;50.126;8.710;2023-03-13T14:10:44;17.21;79.77
67157;SHT31;54086;50.126;8.710;2023-03-13T14:13:17;17.19;79.45
67157;SHT31;54086;50.126;8.710;2023-03-13T14:15:47;17.19;79.31
67157;SHT31;54086;50.126;8.710;2023-03-13T14:18:24;17.15;79.38
67157;SHT31;54086;50.126;8.710;2023-03-13T14:20:55;17.10;79.61
67157;SHT31;54086;50.126;8.710;2023-03-13T14:23:39;17.00;80.43
67157;SHT31;54086;50.126;8.710;2023-03-13T14:26:25;17.07;80.29
67157;SHT31;54086;50.126;8.710;2023-03-13T14:28:53;17.01;80.58
67157;SHT31;54086;50.126;8.710;2023-03-13T14:31:30;17.14;78.49
67157;SHT31;54086;50.126;8.710;2023-03-13T14:34:04;17.38;76.32
67157;SHT31;54086;50.126;8.710;2023-03-13T14:36:51;17.66;74.56
67157;SHT31;54086;50.126;8.710;2023-03-13T14:40:03;17.84;73.87
67157;SHT31;54086;50.126;8.710;2023-03-13T14:42:15;17.86;73.64
67157;SHT31;54086;50.126;8.710;2023-03-13T14:44:42;17.90;72.85
67157;SHT31;54086;50.126;8.710;2023-03-13T14:47:23;17.93;73.03
67157;SHT31;54086;50.126;8.710;2023-03-13T14:50:01;17.86;73.26
67157;SHT31;54086;50.126;8.710;2023-03-13T14:52:30;17.86;73.17
67157;SHT31;54086;50.126;8.710;2023-03-13T14:55:05;17.83;73.25
67157;SHT31;54086;50.126;8.710;2023-03-13T14:57:33;17.83;73.29
67157;SHT31;54086;50.126;8.710;2023-03-13T15:00:20;17.82;73.13
67157;SHT31;54086;50.126;8.710;2023-03-13T15:02:50;17.77;73.31
67157;SHT31;54086;50.126;8.710;2023-03-13T15:05:31;17.79;73.22
67157;SHT31;54086;50.126;8.710;2023-03-13T15:07:57;17.74;73.21
67157;SHT31;54086;50.126;8.710;2023-03-13T15:10:28;17.72;73.41
67157;SHT31;54086;50.126;8.710;2023-03-13T15:12:55;17.73;73.15
67157;SHT31;54086;50.126;8.710;2023-03-13T15:15:21;17.62;74.31
67157;SHT31;54086;50.126;8.710;2023-03-13T15:17:46;17.38;76.93
67157;SHT31;54086;50.126;8.710;2023-03-13T15:20:13;16.59;82.17
67157;SHT31;54086;50.126;8.710;2023-03-13T15:22:41;15.64;86.05
67157;SHT31;54086;50.126;8.710;2023-03-13T15:25:18;14.32;89.34
67157;SHT31;54086;50.126;8.710;2023-03-13T15:27:44;13.81;91.50
67157;SHT31;54086;50.126;8.710;2023-03-13T15:30:17;13.63;92.28
67157;SHT31;54086;50.126;8.710;2023-03-13T15:32:44;13.36;92.46
67157;SHT31;54086;50.126;8.710;2023-03-13T15:35:31;13.25;92.27
67157;SHT31;54086;50.126;8.710;2023-03-13T15:37:59;12.84;91.17
67157;SHT31;54086;50.126;8.710;2023-03-13T15:40:26;12.80;91.64
67157;SHT31;54086;50.126;8.710;2023-03-13T15:42:52;12.88;90.47
67157;SHT31;54086;50.126;8.710;2023-03-13T15:45:18;12.99;89.54
67157;SHT31;54086;50.126;8.710;2023-03-13T15:47:44;13.14;88.78
67157;SHT31;54086;50.126;8.710;2023-03-13T15:50:14;13.08;89.64
67157;SHT31;54086;50.126;8.710;2023-03-13T15:52:40;12.98;89.79
67157;SHT31;54086;50.126;8.710;2023-03-13T15:55:05;12.92;90.32
67157;SHT31;54086;50.126;8.710;2023-03-13T15:57:35;12.92;89.66
67157;SHT31;54086;50.126;8.710;2023-03-13T16:00:00;12.95;90.22
67157;SHT31;54086;50.126;8.710;2023-03-13T16:02:26;12.91;90.41
67157;SHT31;54086;50.126;8.710;2023-03-13T16:04:51;12.91;90.39
67157;SHT31;54086;50.126;8.710;2023-03-13T16:07:19;12.92;90.55
67157;SHT31;54086;50.126;8.710;2023-03-13T16:09:46;12.97;90.49
67157;SHT31;54086;50.126;8.710;2023-03-13T16:12:12;12.89;91.00
67157;SHT31;54086;50.126;8.710;2023-03-13T16:14:38;12.87;91.20
67157;SHT31;54086;50.126;8.710;2023-03-13T16:17:12;12.95;90.16
67157;SHT31;54086;50.126;8.710;2023-03-13T16:19:38;12.95;90.29
67157;SHT31;54086;50.126;8.710;2023-03-13T16:22:03;12.88;91.12
67157;SHT31;54086;50.126;8.710;2023-03-13T16:24:28;12.81;90.90
67157;SHT31;54086;50.126;8.710;2023-03-13T16:26:54;12.77;91.28
67157;SHT31;54086;50.126;8.710;2023-03-13T16:29:19;12.68;91.90
67157;SHT31;54086;50.126;8.710;2023-03-13T16:31:45;12.57;92.22
67157;SHT31;54086;50.126;8.710;2023-03-13T16:34:10;12.57;92.52
67157;SHT31;54086;50.126;8.710;2023-03-13T16:36:36;12.56;92.39
67157;SHT31;54086;50.126;8.710;2023-03-13T16:39:04;12.50;92.28
67157;SHT31;54086;50.126;8.710;2023-03-13T16:41:32;12.48;92.70
67157;SHT31;54086;50.126;8.710;2023-03-13T16:43:57;12.47;92.71
67157;SHT31;54086;50.126;8.710;2023-03-13T16:46:34;12.41;92.93
67157;SHT31;54086;50.126;8.710;2023-03-13T16:49:00;12.40;93.00
67157;SHT31;54086;50.126;8.710;2023-03-13T16:51:27;12.36;92.80
67157;SHT31;54086;50.126;8.710;2023-03-13T16:53:54;12.36;92.82
67157;SHT31;54086;50.126;8.710;2023-03-13T16:58:48;12.27;92.32
67157;SHT31;54086;50.126;8.710;2023-03-13T17:01:14;12.26;92.62
67157;SHT31;54086;50.126;8.710;2023-03-13T17:03:39;12.29;92.05
67157;SHT31;54086;50.126;8.710;2023-03-13T17:06:05;12.32;92.34
67157;SHT31;54086;50.126;8.710;2023-03-13T17:08:31;12.26;92.35
67157;SHT31;54086;50.126;8.710;2023-03-13T17:10:56;12.22;92.33